createdAt,value
2023-03-29T00:00:14.690Z,0.68
2023-03-29T00:04:14.938Z,0.63
2023-03-29T00:08:15.088Z,0.71
2023-03-29T00:12:15.367Z,0.84
2023-03-29T00:16:15.521Z,0.96
2023-03-29T00:20:15.640Z,0.99
2023-03-29T00:24:15.880Z,0.90
2023-03-29T00:28:16.105Z,0.94
2023-03-29T00:32:16.346Z,1.04
2023-03-29T00:36:16.545Z,1.01
2023-03-29T00:40:17.369Z,1.18
2023-03-29T00:44:16.964Z,1.10
2023-03-29T00:48:17.152Z,1.11
2023-03-29T00:52:17.504Z,1.14
2023-03-29T00:56:17.601Z,1.23
2023-03-29T01:00:17.727Z,1.26
2023-03-29T01:04:17.555Z,1.09
2023-03-29T01:08:17.501Z,1.01
2023-03-29T01:12:17.485Z,0.98
2023-03-29T01:16:17.603Z,0.97
2023-03-29T01:20:17.425Z,1.09
2023-03-29T01:24:17.362Z,1.05
2023-03-29T01:28:17.341Z,0.94
2023-03-29T01:32:17.342Z,0.75
2023-03-29T01:36:17.288Z,0.73
2023-03-29T01:40:17.359Z,0.81
2023-03-29T01:44:17.564Z,0.68
2023-03-29T01:48:17.746Z,0.72
2023-03-29T01:52:17.947Z,0.70
2023-03-29T01:56:17.912Z,0.74
2023-03-29T02:00:17.826Z,0.71
2023-03-29T02:04:17.800Z,0.74
2023-03-29T02:08:17.776Z,0.71
2023-03-29T02:12:17.769Z,0.80
2023-03-29T02:16:17.744Z,0.83
2023-03-29T02:20:17.760Z,0.86
2023-03-29T02:24:17.624Z,0.73
2023-03-29T02:28:17.898Z,0.77
2023-03-29T02:32:17.621Z,0.80
2023-03-29T02:36:17.656Z,0.75
2023-03-29T02:40:17.788Z,0.75
2023-03-29T02:44:17.954Z,0.81
2023-03-29T02:48:18.171Z,0.76
2023-03-29T02:52:18.384Z,0.75
2023-03-29T02:56:18.656Z,0.73
2023-03-29T03:00:18.845Z,0.72
2023-03-29T03:04:18.832Z,1.06
2023-03-29T03:08:18.790Z,0.90
2023-03-29T03:12:18.740Z,0.67
2023-03-29T03:16:18.796Z,0.90
2023-03-29T03:20:18.761Z,0.78
2023-03-29T03:24:18.789Z,0.70
2023-03-29T03:28:18.684Z,0.63
2023-03-29T03:32:18.630Z,0.60
2023-03-29T03:36:18.593Z,0.58
2023-03-29T03:40:18.603Z,0.80
2023-03-29T03:44:18.580Z,0.63
2023-03-29T03:48:18.584Z,0.75
2023-03-29T03:52:18.592Z,0.57
2023-03-29T03:56:19.434Z,0.63
2023-03-29T04:00:18.524Z,0.77
2023-03-29T04:04:18.537Z,0.90
2023-03-29T04:08:18.985Z,0.86
2023-03-29T04:12:18.472Z,0.87
2023-03-29T04:16:18.588Z,0.97
2023-03-29T04:20:18.423Z,1.26
2023-03-29T04:24:18.418Z,1.15
2023-03-29T04:28:18.419Z,1.26
2023-03-29T04:32:18.395Z,1.22
2023-03-29T04:36:18.414Z,1.08
2023-03-29T04:40:18.360Z,1.12
2023-03-29T04:44:18.344Z,0.95
2023-03-29T04:48:18.301Z,1.19
2023-03-29T04:52:18.265Z,1.61
2023-03-29T04:56:18.346Z,2.40
2023-03-29T05:00:18.176Z,2.85
2023-03-29T05:04:18.233Z,3.34
2023-03-29T05:08:18.079Z,4.03
2023-03-29T05:12:18.019Z,5.06
2023-03-29T05:16:18.022Z,5.68
2023-03-29T05:20:17.987Z,6.47
2023-03-29T05:24:17.914Z,7.54
2023-03-29T05:28:17.821Z,8.69
2023-03-29T05:32:17.755Z,9.21
2023-03-29T05:36:17.886Z,7.54
2023-03-29T05:40:18.010Z,10.12
2023-03-29T05:44:18.515Z,11.50
2023-03-29T05:48:17.848Z,13.44
2023-03-29T05:52:19.485Z,16.18
2023-03-29T05:56:18.483Z,18.26
2023-03-29T06:00:18.173Z,18.33
2023-03-29T06:04:18.586Z,20.73
2023-03-29T06:08:18.502Z,22.46
2023-03-29T06:12:18.222Z,22.64
2023-03-29T06:16:18.266Z,23.19
2023-03-29T06:20:18.221Z,24.64
2023-03-29T06:24:18.187Z,26.26
2023-03-29T06:28:18.213Z,29.90
2023-03-29T06:32:18.296Z,30.08
2023-03-29T06:36:18.289Z,33.05
2023-03-29T06:40:18.061Z,35.31
2023-03-29T06:44:18.157Z,38.09
2023-03-29T06:48:18.530Z,41.37
2023-03-29T06:52:18.542Z,42.55
2023-03-29T06:56:18.173Z,38.58
2023-03-29T07:00:18.135Z,37.44
2023-03-29T07:04:18.663Z,37.79
2023-03-29T07:08:18.127Z,37.80
2023-03-29T07:12:18.519Z,40.99
2023-03-29T07:16:18.220Z,40.38
2023-03-29T07:20:18.496Z,37.27
2023-03-29T07:24:18.306Z,39.29
2023-03-29T07:28:19.036Z,39.80
2023-03-29T07:32:18.690Z,36.55
2023-03-29T07:36:18.761Z,37.13
2023-03-29T07:40:19.070Z,32.68
2023-03-29T07:44:19.516Z,32.87
2023-03-29T07:48:18.829Z,25.88
2023-03-29T07:52:18.769Z,27.38
2023-03-29T07:56:18.680Z,25.03
2023-03-29T08:00:18.642Z,26.44
2023-03-29T08:04:18.742Z,26.07
2023-03-29T08:08:18.497Z,25.85
2023-03-29T08:12:18.350Z,27.84
2023-03-29T08:16:18.331Z,26.06
2023-03-29T08:20:18.202Z,24.65
2023-03-29T08:24:20.821Z,25.80
2023-03-29T08:28:18.072Z,26.91
2023-03-29T08:32:17.980Z,27.25
2023-03-29T08:36:19.558Z,27.02
2023-03-29T08:40:17.779Z,31.93
2023-03-29T08:44:17.672Z,29.66
2023-03-29T08:48:18.081Z,30.62
2023-03-29T08:52:18.587Z,29.85
2023-03-29T08:56:17.689Z,29.57
2023-03-29T09:00:17.870Z,30.98
2023-03-29T09:04:17.725Z,30.00
2023-03-29T09:08:18.051Z,26.78
2023-03-29T09:12:17.570Z,30.31
2023-03-29T09:16:18.118Z,28.22
2023-03-29T09:20:17.427Z,29.21
2023-03-29T09:24:17.329Z,27.99
2023-03-29T09:28:17.597Z,31.29
2023-03-29T09:32:17.137Z,30.92
2023-03-29T09:36:17.162Z,40.98
2023-03-29T09:40:17.109Z,47.62
2023-03-29T09:44:29.821Z,51.72
2023-03-29T09:48:18.061Z,48.87
2023-03-29T09:52:17.066Z,44.11
2023-03-29T09:56:16.884Z,38.39
2023-03-29T10:00:17.102Z,39.47
2023-03-29T10:04:17.084Z,33.79
2023-03-29T10:08:18.929Z,33.19
2023-03-29T10:12:17.116Z,31.20
2023-03-29T10:16:16.913Z,30.09
2023-03-29T10:20:16.695Z,30.22
2023-03-29T10:24:17.158Z,27.89
2023-03-29T10:28:16.583Z,26.86
2023-03-29T10:32:16.626Z,25.59
2023-03-29T10:36:16.586Z,27.53
2023-03-29T10:40:16.605Z,25.25
2023-03-29T10:44:16.264Z,23.63
2023-03-29T10:48:16.208Z,22.96
2023-03-29T10:52:16.106Z,23.21
2023-03-29T10:56:16.087Z,22.19
2023-03-29T11:00:15.951Z,21.65
2023-03-29T11:04:15.847Z,18.75
2023-03-29T11:08:15.943Z,19.56
2023-03-29T11:12:16.620Z,19.05
2023-03-29T11:16:16.162Z,18.89
2023-03-29T11:20:16.040Z,17.20
2023-03-29T11:24:16.065Z,16.93
2023-03-29T11:28:16.226Z,17.87
2023-03-29T11:32:16.113Z,13.40
2023-03-29T11:36:16.666Z,13.18
2023-03-29T11:40:16.229Z,11.03
2023-03-29T11:44:16.458Z,14.33
2023-03-29T11:48:16.441Z,12.12
2023-03-29T11:52:16.563Z,10.46
2023-03-29T11:56:24.193Z,9.63
2023-03-29T12:00:16.616Z,10.96
2023-03-29T12:04:16.682Z,12.58
2023-03-29T12:08:16.494Z,11.77
2023-03-29T12:12:16.407Z,12.40
2023-03-29T12:16:16.352Z,12.65
2023-03-29T12:20:16.164Z,11.03
2023-03-29T12:24:16.104Z,11.27
2023-03-29T12:28:17.630Z,9.39
2023-03-29T12:32:16.001Z,8.79
2023-03-29T12:36:16.001Z,8.52
2023-03-29T12:40:15.899Z,8.24
2023-03-29T12:44:15.781Z,8.40
2023-03-29T12:48:15.720Z,9.06
2023-03-29T12:52:15.721Z,8.25
2023-03-29T12:56:15.671Z,7.80
2023-03-29T13:00:15.653Z,8.08
2023-03-29T13:04:15.589Z,7.82
2023-03-29T13:08:15.560Z,7.06
2023-03-29T13:12:25.677Z,6.96
2023-03-29T13:16:15.555Z,7.18
2023-03-29T13:20:15.378Z,7.76
2023-03-29T13:24:15.281Z,7.38
2023-03-29T13:28:15.202Z,7.83
2023-03-29T13:32:15.105Z,7.24
2023-03-29T13:36:15.047Z,6.33
2023-03-29T13:40:14.909Z,7.41
2023-03-29T13:44:14.827Z,7.57
2023-03-29T13:48:14.759Z,7.14
2023-03-29T13:52:14.642Z,6.10
2023-03-29T13:56:14.676Z,6.14
2023-03-29T14:00:14.699Z,6.66
2023-03-29T14:04:14.805Z,6.65
2023-03-29T14:08:14.880Z,6.97
2023-03-29T14:12:14.932Z,6.68
2023-03-29T14:16:15.044Z,7.08
2023-03-29T14:20:15.090Z,7.14
2023-03-29T14:24:15.268Z,6.40
2023-03-29T14:28:15.314Z,6.12
2023-03-29T14:32:15.467Z,6.52
2023-03-29T14:36:15.522Z,6.85
2023-03-29T14:40:15.611Z,6.91
2023-03-29T14:44:15.676Z,7.10
2023-03-29T14:48:15.867Z,5.92
2023-03-29T14:52:15.895Z,6.09
2023-03-29T14:56:16.026Z,6.57
2023-03-29T15:00:16.172Z,6.58
2023-03-29T15:04:16.228Z,5.92
2023-03-29T15:08:16.309Z,6.25
2023-03-29T15:12:16.377Z,6.58
2023-03-29T15:16:16.528Z,6.51
2023-03-29T15:20:16.733Z,6.52
2023-03-29T15:24:16.675Z,6.75
2023-03-29T15:28:16.754Z,6.93
2023-03-29T15:32:16.841Z,6.28
2023-03-29T15:36:17.058Z,6.45
2023-03-29T15:40:17.188Z,6.46
2023-03-29T15:44:17.203Z,6.21
2023-03-29T15:48:17.331Z,6.19
2023-03-29T15:52:17.498Z,5.98
2023-03-29T15:56:17.608Z,5.95
2023-03-29T16:00:17.669Z,6.04
2023-03-29T16:04:17.785Z,5.79
2023-03-29T16:08:17.892Z,6.16
2023-03-29T16:12:17.935Z,5.95
2023-03-29T16:16:18.075Z,6.00
2023-03-29T16:20:18.149Z,5.52
2023-03-29T16:24:18.177Z,5.51
2023-03-29T16:28:18.278Z,5.76
2023-03-29T16:32:18.369Z,6.03
2023-03-29T16:36:18.400Z,6.24
2023-03-29T16:40:18.385Z,5.81
2023-03-29T16:44:20.753Z,5.57
2023-03-29T16:48:18.412Z,5.94
2023-03-29T16:52:18.327Z,6.38
2023-03-29T16:56:19.248Z,6.31
2023-03-29T17:00:18.178Z,6.04
2023-03-29T17:04:18.136Z,6.07
2023-03-29T17:08:18.013Z,5.82
2023-03-29T17:12:18.142Z,5.65
2023-03-29T17:16:18.227Z,5.36
2023-03-29T17:20:18.164Z,5.01
2023-03-29T17:24:18.138Z,4.98
2023-03-29T17:28:18.108Z,4.44
2023-03-29T17:32:18.039Z,4.22
2023-03-29T17:36:18.028Z,3.62
2023-03-29T17:40:17.951Z,3.57
2023-03-29T17:44:17.916Z,2.99
2023-03-29T17:48:17.929Z,3.03
2023-03-29T17:52:17.924Z,3.04
2023-03-29T17:56:17.957Z,2.92
2023-03-29T18:00:17.941Z,2.89
2023-03-29T18:04:17.957Z,2.71
2023-03-29T18:08:17.921Z,2.63
2023-03-29T18:12:17.950Z,2.51
2023-03-29T18:16:17.990Z,2.46
2023-03-29T18:20:18.033Z,2.21
2023-03-29T18:24:18.057Z,2.20
2023-03-29T18:28:18.119Z,2.22
2023-03-29T18:32:18.202Z,2.17
2023-03-29T18:36:18.237Z,2.10
2023-03-29T18:40:18.273Z,2.11
2023-03-29T18:44:18.298Z,2.01
2023-03-29T18:48:18.355Z,2.04
2023-03-29T18:52:18.415Z,1.93
2023-03-29T18:56:18.477Z,1.90
2023-03-29T19:00:18.491Z,1.99
2023-03-29T19:04:18.577Z,1.83
2023-03-29T19:08:18.606Z,1.76
2023-03-29T19:12:18.678Z,1.64
2023-03-29T19:16:18.866Z,1.72
2023-03-29T19:20:18.882Z,1.65
2023-03-29T19:24:18.918Z,1.62
2023-03-29T19:28:19.011Z,1.69
2023-03-29T19:32:19.073Z,1.66
2023-03-29T19:36:19.162Z,1.63
2023-03-29T19:40:19.324Z,1.69
2023-03-29T19:44:19.338Z,1.54
2023-03-29T19:48:23.051Z,1.55
2023-03-29T19:52:19.411Z,1.50
2023-03-29T19:56:19.360Z,1.52
2023-03-29T20:00:19.353Z,1.54
2023-03-29T20:04:19.306Z,1.39
2023-03-29T20:08:19.253Z,1.41
2023-03-29T20:12:19.217Z,1.39
2023-03-29T20:16:19.276Z,1.38
2023-03-29T20:20:19.365Z,1.38
2023-03-29T20:24:19.490Z,1.30
2023-03-29T20:28:19.594Z,1.29
2023-03-29T20:32:19.828Z,1.25
2023-03-29T20:36:19.955Z,1.29
2023-03-29T20:40:20.057Z,1.23
2023-03-29T20:44:20.140Z,1.22
2023-03-29T20:48:20.280Z,1.25
2023-03-29T20:52:20.435Z,1.23
2023-03-29T20:56:20.606Z,1.18
2023-03-29T21:00:20.741Z,1.24
2023-03-29T21:04:20.872Z,1.26
2023-03-29T21:08:21.047Z,1.26
2023-03-29T21:12:21.172Z,1.21
2023-03-29T21:16:21.371Z,1.18
2023-03-29T21:20:21.535Z,1.23
2023-03-29T21:24:21.683Z,1.22
2023-03-29T21:28:21.793Z,1.23
2023-03-29T21:32:21.965Z,1.22
2023-03-29T21:36:22.122Z,1.19
2023-03-29T21:40:22.263Z,1.25
2023-03-29T21:44:22.484Z,1.19
2023-03-29T21:48:22.594Z,1.15
2023-03-29T21:52:22.733Z,1.17
2023-03-29T21:56:22.868Z,1.18
2023-03-29T22:00:23.035Z,1.15
2023-03-29T22:04:35.722Z,1.19
2023-03-29T22:08:24.088Z,1.16
2023-03-29T22:12:23.020Z,1.18
2023-03-29T22:16:23.000Z,1.18
2023-03-29T22:20:23.126Z,1.13
2023-03-29T22:24:23.240Z,1.13
2023-03-29T22:28:23.378Z,1.13
2023-03-29T22:32:23.575Z,1.15
2023-03-29T22:36:23.664Z,1.12
2023-03-29T22:40:23.873Z,1.10
2023-03-29T22:44:24.000Z,1.12
2023-03-29T22:48:24.147Z,1.11
2023-03-29T22:52:24.311Z,1.14
2023-03-29T22:56:24.437Z,1.15
2023-03-29T23:00:24.587Z,1.09
2023-03-29T23:04:24.815Z,1.09
2023-03-29T23:08:24.916Z,1.08
2023-03-29T23:12:25.057Z,1.04
2023-03-29T23:16:25.279Z,1.04
2023-03-29T23:20:25.382Z,1.07
2023-03-29T23:24:25.551Z,1.06
2023-03-29T23:28:25.696Z,1.04
2023-03-29T23:32:25.863Z,0.94
2023-03-29T23:36:26.044Z,0.95
2023-03-29T23:40:26.178Z,0.94
2023-03-29T23:44:26.305Z,0.96
2023-03-29T23:48:26.428Z,0.94
2023-03-29T23:52:26.573Z,0.92
2023-03-29T23:56:26.768Z,0.89
